Terminal Aerodrome Forecast
Issued by NWS

Home | Current Version | Previous Version | Text Only | Print | Product List | Glossary On
Versions: 1 2 3 4 5 6 7 8 9 10 11 12 13 14 15 16
000
FTUS43 KPAH 011120
TAFOWB
TAF
KOWB 011120Z 0112/0212 VRB03KT P6SM SCT015 BKN100
      TEMPO 0113/0117 BKN015
     FM011700 22005KT P6SM SCT020 BKN100
     FM020000 26008KT P6SM VCSH BKN040
     FM020700 30007KT P6SM FEW050 SCT150=

USA.gov is the U.S. government's official web portal to all federal, state and local government web resources and services.